createdAt,value
2022-10-10T00:01:37.093Z,100.00
2022-10-10T00:04:07.622Z,100.00
2022-10-10T00:06:36.551Z,95.61
2022-10-10T00:09:07.046Z,94.73
2022-10-10T00:11:36.320Z,93.38
2022-10-10T00:14:04.847Z,90.46
2022-10-10T00:16:33.515Z,93.85
2022-10-10T00:19:02.063Z,94.48
2022-10-10T00:21:32.196Z,91.24
2022-10-10T00:24:01.517Z,90.13
2022-10-10T00:26:30.044Z,90.05
2022-10-10T00:28:58.492Z,89.76
2022-10-10T00:31:27.012Z,89.21
2022-10-10T00:33:55.487Z,89.03
2022-10-10T00:36:24.019Z,88.88
2022-10-10T00:38:53.835Z,89.60
2022-10-10T00:41:22.592Z,89.78
2022-10-10T00:44:05.693Z,90.00
2022-10-10T00:46:34.215Z,91.63
2022-10-10T00:49:04.193Z,90.27
2022-10-10T00:51:33.179Z,89.58
2022-10-10T00:54:06.339Z,91.31
2022-10-10T00:56:41.106Z,90.62
2022-10-10T00:59:12.263Z,89.99
2022-10-10T01:01:42.388Z,90.88
2022-10-10T01:04:30.365Z,90.94
2022-10-10T01:07:00.318Z,90.42
2022-10-10T01:09:31.281Z,94.30
2022-10-10T01:12:08.727Z,93.26
2022-10-10T01:14:47.271Z,91.70
2022-10-10T01:17:21.296Z,90.52
2022-10-10T01:20:25.257Z,90.30
2022-10-10T01:23:21.265Z,88.39
2022-10-10T01:26:00.468Z,98.65
2022-10-10T01:28:41.320Z,96.76
2022-10-10T01:31:14.213Z,94.84
2022-10-10T01:33:54.163Z,94.79
2022-10-10T01:36:30.229Z,100.00
2022-10-10T01:39:08.130Z,100.00
2022-10-10T01:41:41.576Z,100.00
2022-10-10T01:44:11.371Z,100.00
2022-10-10T01:46:39.944Z,100.00
2022-10-10T01:49:08.466Z,100.00
2022-10-10T01:51:53.850Z,100.00
2022-10-10T01:54:34.829Z,100.00
2022-10-10T01:57:16.920Z,100.00
2022-10-10T01:59:59.855Z,100.00
2022-10-10T02:02:40.357Z,100.00
2022-10-10T02:05:16.106Z,100.00
2022-10-10T02:07:50.250Z,100.00
2022-10-10T02:10:23.056Z,100.00
2022-10-10T02:12:53.290Z,100.00
2022-10-10T02:15:26.621Z,100.00
2022-10-10T02:17:58.212Z,100.00
2022-10-10T02:20:28.961Z,100.00
2022-10-10T02:22:57.810Z,100.00
2022-10-10T02:25:31.765Z,100.00
2022-10-10T02:28:08.486Z,100.00
2022-10-10T02:30:42.653Z,100.00
2022-10-10T02:33:14.032Z,100.00
2022-10-10T02:35:47.201Z,100.00
2022-10-10T02:38:18.806Z,100.00
2022-10-10T02:40:49.436Z,100.00
2022-10-10T02:43:19.005Z,100.00
2022-10-10T02:45:49.000Z,100.00
2022-10-10T02:48:17.491Z,100.00
2022-10-10T02:50:46.494Z,100.00
2022-10-10T02:53:14.947Z,100.00
2022-10-10T02:55:43.424Z,100.00
2022-10-10T02:58:11.912Z,100.00
2022-10-10T03:00:40.465Z,100.00
2022-10-10T03:03:10.284Z,100.00
2022-10-10T03:05:38.719Z,100.00
2022-10-10T03:08:11.467Z,100.00
2022-10-10T03:10:40.861Z,100.00
2022-10-10T03:13:09.435Z,100.00
2022-10-10T03:15:37.937Z,100.00
2022-10-10T03:18:06.476Z,100.00
2022-10-10T03:20:36.316Z,100.00
2022-10-10T03:23:04.786Z,100.00
2022-10-10T03:25:35.046Z,100.00
2022-10-10T03:28:03.555Z,100.00
2022-10-10T03:30:32.033Z,100.00
2022-10-10T03:33:00.468Z,100.00
2022-10-10T03:35:29.181Z,100.00
2022-10-10T03:37:59.611Z,100.00
2022-10-10T03:40:28.945Z,100.00
2022-10-10T03:42:57.762Z,100.00
2022-10-10T03:45:26.343Z,100.00
2022-10-10T03:47:54.812Z,100.00
2022-10-10T03:50:23.318Z,100.00
2022-10-10T03:52:52.240Z,100.00
2022-10-10T03:55:22.481Z,100.00
2022-10-10T03:57:50.912Z,100.00
2022-10-10T04:00:19.569Z,100.00
2022-10-10T04:02:48.145Z,100.00
2022-10-10T04:05:16.836Z,100.00
2022-10-10T04:07:45.320Z,100.00
2022-10-10T04:10:13.813Z,100.00
2022-10-10T04:12:43.689Z,100.00
2022-10-10T04:15:12.568Z,100.00
2022-10-10T04:17:40.992Z,100.00
2022-10-10T04:20:10.128Z,100.00
2022-10-10T04:22:38.593Z,100.00
2022-10-10T04:25:07.761Z,100.00
2022-10-10T04:27:36.241Z,100.00
2022-10-10T04:30:07.168Z,100.00
2022-10-10T04:32:35.618Z,100.00
2022-10-10T04:35:04.962Z,100.00
2022-10-10T04:37:34.476Z,100.00
2022-10-10T04:40:03.033Z,100.00
2022-10-10T04:42:31.530Z,100.00
2022-10-10T04:45:00.008Z,100.00
2022-10-10T04:47:29.829Z,100.00
2022-10-10T04:49:58.290Z,100.00
2022-10-10T04:52:26.811Z,100.00
2022-10-10T04:54:55.263Z,100.00
2022-10-10T04:57:23.987Z,100.00
2022-10-10T04:59:52.604Z,100.00
2022-10-10T05:02:21.145Z,100.00
2022-10-10T05:04:50.959Z,100.00
2022-10-10T05:07:19.439Z,100.00
2022-10-10T05:09:47.922Z,100.00
2022-10-10T05:12:16.413Z,100.00
2022-10-10T05:14:48.153Z,100.00
2022-10-10T05:17:16.960Z,100.00
2022-10-10T05:19:45.609Z,100.00
2022-10-10T05:22:15.456Z,100.00
2022-10-10T05:24:43.912Z,100.00
2022-10-10T05:27:12.423Z,100.00
2022-10-10T05:29:40.926Z,100.00
2022-10-10T05:32:10.432Z,100.00
2022-10-10T05:34:39.543Z,100.00
2022-10-10T05:37:08.086Z,100.00
2022-10-10T05:39:37.924Z,100.00
2022-10-10T05:42:06.529Z,100.00
2022-10-10T05:44:35.010Z,100.00
2022-10-10T05:47:04.431Z,100.00
2022-10-10T05:49:32.905Z,100.00
2022-10-10T05:52:01.422Z,100.00
2022-10-10T05:54:29.892Z,100.00
2022-10-10T05:56:59.772Z,100.00
2022-10-10T05:59:30.312Z,100.00
2022-10-10T06:01:59.013Z,100.00
2022-10-10T06:04:27.536Z,100.00
2022-10-10T06:06:55.964Z,100.00
2022-10-10T06:09:24.448Z,100.00
2022-10-10T06:11:52.958Z,100.00
2022-10-10T06:14:22.884Z,100.00
2022-10-10T06:16:51.390Z,100.00
2022-10-10T06:19:19.853Z,100.00
2022-10-10T06:21:49.637Z,100.00
2022-10-10T06:24:18.099Z,100.00
2022-10-10T06:26:46.555Z,100.00
2022-10-10T06:29:15.011Z,100.00
2022-10-10T06:31:44.864Z,100.00
2022-10-10T06:34:13.332Z,100.00
2022-10-10T06:36:41.810Z,100.00
2022-10-10T06:39:10.261Z,100.00
2022-10-10T06:41:38.733Z,100.00
2022-10-10T06:44:07.691Z,100.00
2022-10-10T06:46:37.363Z,100.00
2022-10-10T06:49:07.277Z,100.00
2022-10-10T06:51:35.792Z,100.00
2022-10-10T06:54:04.297Z,100.00
2022-10-10T06:56:33.110Z,100.00
2022-10-10T06:59:01.634Z,100.00
2022-10-10T07:01:30.263Z,100.00
2022-10-10T07:03:58.768Z,100.00
2022-10-10T07:06:32.517Z,100.00
2022-10-10T07:09:03.168Z,100.00
2022-10-10T07:11:32.425Z,100.00
2022-10-10T07:14:00.878Z,100.00
2022-10-10T07:16:29.376Z,100.00
2022-10-10T07:18:57.849Z,100.00
2022-10-10T07:21:27.798Z,100.00
2022-10-10T07:23:56.274Z,100.00
2022-10-10T07:26:28.195Z,100.00
2022-10-10T07:28:56.617Z,100.00
2022-10-10T07:31:25.223Z,100.00
2022-10-10T07:33:53.734Z,100.00
2022-10-10T07:36:22.276Z,100.00
2022-10-10T07:38:54.492Z,100.00
2022-10-10T07:41:23.531Z,100.00
2022-10-10T07:43:56.760Z,100.00
2022-10-10T07:46:25.760Z,100.00
2022-10-10T07:48:54.200Z,100.00
2022-10-10T07:51:22.689Z,100.00
2022-10-10T07:53:53.862Z,100.00
2022-10-10T07:56:22.643Z,100.00
2022-10-10T07:58:51.096Z,100.00
2022-10-10T08:01:20.210Z,100.00
2022-10-10T08:03:48.881Z,100.00
2022-10-10T08:06:18.653Z,100.00
2022-10-10T08:08:51.995Z,100.00
2022-10-10T08:11:23.280Z,100.00
2022-10-10T08:13:52.373Z,100.00
2022-10-10T08:16:21.091Z,100.00
2022-10-10T08:18:49.585Z,100.00
2022-10-10T08:21:18.460Z,100.00
2022-10-10T08:23:47.673Z,100.00
2022-10-10T08:26:17.981Z,100.00
2022-10-10T08:28:48.793Z,100.00
2022-10-10T08:31:19.822Z,100.00
2022-10-10T08:33:49.271Z,100.00
2022-10-10T08:36:19.646Z,100.00
2022-10-10T08:38:48.304Z,100.00
2022-10-10T08:41:28.388Z,100.00
2022-10-10T08:44:01.672Z,100.00
2022-10-10T08:46:40.529Z,100.00
2022-10-10T08:49:20.426Z,100.00
2022-10-10T08:51:54.214Z,100.00
2022-10-10T08:54:25.082Z,100.00
2022-10-10T08:56:56.311Z,100.00
2022-10-10T08:59:31.299Z,100.00
2022-10-10T09:02:17.733Z,100.00
2022-10-10T09:04:47.552Z,100.00
2022-10-10T09:07:28.116Z,100.00
2022-10-10T09:10:02.285Z,100.00
2022-10-10T09:12:39.226Z,100.00
2022-10-10T09:15:16.413Z,100.00
2022-10-10T09:17:51.099Z,100.00
2022-10-10T09:20:36.416Z,100.00
2022-10-10T09:23:09.873Z,98.91
2022-10-10T09:25:41.887Z,99.08
2022-10-10T09:28:17.293Z,97.04
2022-10-10T09:30:51.738Z,93.88
2022-10-10T09:33:28.311Z,95.62
2022-10-10T09:36:02.661Z,99.90
2022-10-10T09:38:39.791Z,100.00
2022-10-10T09:41:15.957Z,100.00
2022-10-10T09:43:44.618Z,100.00
2022-10-10T09:46:14.742Z,100.00
2022-10-10T09:48:44.290Z,100.00
2022-10-10T09:51:16.735Z,100.00
2022-10-10T09:53:47.397Z,100.00
2022-10-10T09:56:19.235Z,100.00
2022-10-10T09:58:49.583Z,100.00
2022-10-10T10:01:22.706Z,100.00
2022-10-10T10:04:29.470Z,100.00
2022-10-10T10:07:08.929Z,94.62
2022-10-10T10:09:37.445Z,90.97
2022-10-10T10:12:07.293Z,92.14
2022-10-10T10:14:39.067Z,91.55
2022-10-10T10:17:11.884Z,92.12
2022-10-10T10:19:42.563Z,95.75
2022-10-10T10:22:32.564Z,96.53
2022-10-10T10:25:21.582Z,92.44
2022-10-10T10:27:50.042Z,84.88
2022-10-10T10:30:26.899Z,87.56
2022-10-10T10:33:03.812Z,88.78
2022-10-10T10:35:37.376Z,87.03
2022-10-10T10:38:18.954Z,91.70
2022-10-10T10:40:57.816Z,92.71
2022-10-10T10:43:51.468Z,93.19
2022-10-10T10:46:30.191Z,91.84
2022-10-10T10:49:08.084Z,93.57
2022-10-10T10:52:00.495Z,91.05
2022-10-10T10:54:51.272Z,91.97
2022-10-10T11:00:31.144Z,97.69
2022-10-10T11:03:35.056Z,96.69
2022-10-10T11:06:12.642Z,99.09
2022-10-10T11:08:58.784Z,96.69
2022-10-10T11:11:48.719Z,97.95
2022-10-10T11:14:34.816Z,96.54
2022-10-10T11:17:13.900Z,97.05
2022-10-10T11:19:48.122Z,96.95
2022-10-10T11:22:22.347Z,95.40
2022-10-10T11:24:55.118Z,96.11
2022-10-10T11:27:29.732Z,95.04
2022-10-10T11:30:15.477Z,97.14
2022-10-10T11:32:51.841Z,94.83
2022-10-10T11:35:34.437Z,96.81
2022-10-10T11:38:12.853Z,97.32
2022-10-10T11:40:51.606Z,97.63
2022-10-10T11:43:32.929Z,96.98
2022-10-10T11:46:09.745Z,92.92
2022-10-10T11:48:49.177Z,95.65
2022-10-10T11:51:29.644Z,95.63
2022-10-10T11:54:05.705Z,96.94
2022-10-10T11:56:40.764Z,97.64
2022-10-10T11:59:16.710Z,96.32
2022-10-10T12:01:49.972Z,96.66
2022-10-10T12:04:18.886Z,97.58
2022-10-10T12:06:53.988Z,97.77
2022-10-10T12:09:29.795Z,97.94
2022-10-10T12:12:01.433Z,96.97
2022-10-10T12:14:31.791Z,98.64
2022-10-10T12:17:00.784Z,96.63
2022-10-10T12:19:30.520Z,97.33
2022-10-10T12:22:04.985Z,98.12
2022-10-10T12:24:40.982Z,96.14
2022-10-10T12:27:31.037Z,95.23
2022-10-10T12:30:19.673Z,97.13
2022-10-10T12:32:50.223Z,96.46
2022-10-10T12:35:37.909Z,97.74
2022-10-10T12:38:19.137Z,97.95
2022-10-10T12:41:17.009Z,96.57
2022-10-10T12:44:23.129Z,95.17
2022-10-10T12:47:52.787Z,95.69
2022-10-10T12:50:26.754Z,91.04
2022-10-10T12:52:59.728Z,92.94
2022-10-10T12:55:32.521Z,92.50
2022-10-10T12:58:04.862Z,92.36
2022-10-10T13:00:42.630Z,90.20
2022-10-10T13:03:18.809Z,90.67
2022-10-10T13:05:50.317Z,92.77
2022-10-10T13:08:25.326Z,90.83
2022-10-10T13:11:08.618Z,93.26
2022-10-10T13:13:37.037Z,91.74
2022-10-10T13:16:14.541Z,92.52
2022-10-10T13:18:49.747Z,88.90
2022-10-10T13:21:23.638Z,87.17
2022-10-10T13:26:48.109Z,87.17
2022-10-10T13:29:25.711Z,87.79
2022-10-10T13:32:00.713Z,82.01
2022-10-10T13:34:32.655Z,85.69
2022-10-10T13:37:04.151Z,85.33
2022-10-10T13:39:37.440Z,82.70
2022-10-10T13:42:07.860Z,84.81
2022-10-10T13:44:51.123Z,84.86
2022-10-10T13:47:52.581Z,86.62
2022-10-10T13:50:29.183Z,86.29
2022-10-10T13:53:47.184Z,83.64
2022-10-10T13:56:22.574Z,84.97
2022-10-10T13:58:53.452Z,84.61
2022-10-10T14:01:40.606Z,81.78
2022-10-10T14:04:21.203Z,82.82
2022-10-10T14:07:01.974Z,83.80
2022-10-10T14:09:37.111Z,85.18
2022-10-10T14:12:08.710Z,84.51
2022-10-10T14:14:45.358Z,85.61
2022-10-10T14:17:13.810Z,85.48
2022-10-10T14:19:45.053Z,86.88
2022-10-10T14:22:13.471Z,86.63
2022-10-10T14:24:41.689Z,88.40
2022-10-10T14:27:17.698Z,89.52
2022-10-10T14:29:46.280Z,91.11
2022-10-10T14:32:15.980Z,92.00
2022-10-10T14:34:45.838Z,93.33
2022-10-10T14:37:20.418Z,95.33
2022-10-10T14:39:49.033Z,96.19
2022-10-10T14:42:20.769Z,96.75
2022-10-10T14:44:48.978Z,96.63
2022-10-10T14:47:19.568Z,95.94
2022-10-10T14:49:49.829Z,96.23
2022-10-10T14:52:17.987Z,97.03
2022-10-10T14:54:46.205Z,100.00
2022-10-10T14:57:15.497Z,100.00
2022-10-10T14:59:47.657Z,100.00
2022-10-10T15:02:22.336Z,100.00
2022-10-10T15:04:52.441Z,100.00
2022-10-10T15:07:21.316Z,100.00
2022-10-10T15:12:41.775Z,100.00
2022-10-10T15:15:12.124Z,100.00
2022-10-10T15:17:41.368Z,100.00
2022-10-10T15:20:13.789Z,100.00
2022-10-10T15:22:42.570Z,100.00
2022-10-10T15:25:11.144Z,100.00
2022-10-10T15:27:39.588Z,100.00
2022-10-10T15:30:09.603Z,99.87
2022-10-10T15:32:40.689Z,98.56
2022-10-10T15:35:14.170Z,100.00
2022-10-10T15:37:42.452Z,100.00
2022-10-10T15:40:12.479Z,99.57
2022-10-10T15:42:40.689Z,100.00
2022-10-10T15:45:10.590Z,100.00
2022-10-10T15:47:45.508Z,100.00
2022-10-10T15:50:16.123Z,100.00
2022-10-10T15:52:44.607Z,100.00
2022-10-10T15:55:12.808Z,100.00
2022-10-10T15:57:41.082Z,100.00
2022-10-10T16:00:10.540Z,100.00
2022-10-10T16:02:39.327Z,100.00
2022-10-10T16:05:08.564Z,100.00
2022-10-10T16:07:46.789Z,100.00
2022-10-10T16:10:16.457Z,100.00
2022-10-10T16:12:44.680Z,100.00
2022-10-10T16:15:13.415Z,100.00
2022-10-10T16:17:41.582Z,100.00
2022-10-10T16:20:11.186Z,100.00
2022-10-10T16:22:40.734Z,100.00
2022-10-10T16:25:21.951Z,100.00
2022-10-10T16:27:51.933Z,100.00
2022-10-10T16:30:20.994Z,100.00
2022-10-10T16:32:49.640Z,100.00
2022-10-10T16:35:18.019Z,100.00
2022-10-10T16:37:47.544Z,100.00
2022-10-10T16:40:15.720Z,100.00
2022-10-10T16:42:43.914Z,100.00
2022-10-10T16:45:12.879Z,100.00
2022-10-10T16:47:41.026Z,100.00
2022-10-10T16:50:10.512Z,100.00
2022-10-10T16:52:38.693Z,100.00
2022-10-10T16:55:11.313Z,100.00
2022-10-10T17:00:16.425Z,100.00
2022-10-10T17:02:44.572Z,100.00
2022-10-10T17:05:12.748Z,100.00
2022-10-10T17:07:40.883Z,100.00
2022-10-10T17:10:11.463Z,100.00
2022-10-10T17:12:39.652Z,100.00
2022-10-10T17:15:09.281Z,100.00
2022-10-10T17:17:38.186Z,100.00
2022-10-10T17:20:08.186Z,100.00
2022-10-10T17:22:37.074Z,100.00
2022-10-10T17:25:06.338Z,100.00
2022-10-10T17:27:36.116Z,100.00
2022-10-10T17:30:05.401Z,100.00
2022-10-10T17:32:33.681Z,100.00
2022-10-10T17:35:01.852Z,100.00
2022-10-10T17:37:30.002Z,100.00
2022-10-10T17:39:58.139Z,100.00
2022-10-10T17:42:26.710Z,100.00
2022-10-10T17:44:59.291Z,100.00
2022-10-10T17:47:28.345Z,100.00
2022-10-10T17:49:56.808Z,100.00
2022-10-10T17:52:25.912Z,100.00
2022-10-10T17:54:54.378Z,100.00
2022-10-10T17:57:22.548Z,100.00
2022-10-10T17:59:50.699Z,100.00
2022-10-10T18:02:20.736Z,100.00
2022-10-10T18:04:48.886Z,100.00
2022-10-10T18:07:18.701Z,100.00
2022-10-10T18:09:47.131Z,100.00
2022-10-10T18:12:15.616Z,100.00
2022-10-10T18:14:44.139Z,100.00
2022-10-10T18:17:13.948Z,100.00
2022-10-10T18:19:43.935Z,100.00
2022-10-10T18:22:12.457Z,100.00
2022-10-10T18:24:40.935Z,100.00
2022-10-10T18:27:09.432Z,100.00
2022-10-10T18:29:39.585Z,100.00
2022-10-10T18:32:08.380Z,100.00
2022-10-10T18:34:36.989Z,100.00
2022-10-10T18:37:07.163Z,100.00
2022-10-10T18:39:37.520Z,100.00
2022-10-10T18:42:06.366Z,100.00
2022-10-10T18:44:34.827Z,100.00
2022-10-10T18:47:03.423Z,100.00
2022-10-10T18:49:31.924Z,100.00
2022-10-10T18:52:00.412Z,100.00
2022-10-10T18:54:30.944Z,100.00
2022-10-10T18:56:59.449Z,100.00
2022-10-10T18:59:27.945Z,100.00
2022-10-10T19:01:56.742Z,100.00
2022-10-10T19:04:25.489Z,100.00
2022-10-10T19:06:57.705Z,100.00
2022-10-10T19:09:26.838Z,100.00
2022-10-10T19:11:56.808Z,100.00
2022-10-10T19:14:25.303Z,100.00
2022-10-10T19:16:53.791Z,100.00
2022-10-10T19:19:22.338Z,100.00
2022-10-10T19:21:51.376Z,100.00
2022-10-10T19:24:21.353Z,100.00
2022-10-10T19:26:56.347Z,100.00
2022-10-10T19:29:27.479Z,100.00
2022-10-10T19:31:56.327Z,100.00
2022-10-10T19:34:25.045Z,100.00
2022-10-10T19:36:53.605Z,100.00
2022-10-10T19:39:22.120Z,100.00
2022-10-10T19:41:50.923Z,100.00
2022-10-10T19:44:19.357Z,100.00
2022-10-10T19:46:49.203Z,100.00
2022-10-10T19:49:17.701Z,100.00
2022-10-10T19:51:46.212Z,100.00
2022-10-10T19:54:14.675Z,100.00
2022-10-10T19:56:42.848Z,100.00
2022-10-10T19:59:11.000Z,100.00
2022-10-10T20:01:39.254Z,100.00
2022-10-10T20:04:08.882Z,100.00
2022-10-10T20:06:37.081Z,100.00
2022-10-10T20:09:10.388Z,100.00
2022-10-10T20:11:39.518Z,100.00
2022-10-10T20:14:08.024Z,100.00
2022-10-10T20:16:36.498Z,100.00
2022-10-10T20:19:04.801Z,100.00
2022-10-10T20:21:36.005Z,100.00
2022-10-10T20:24:09.674Z,100.00
2022-10-10T20:26:38.508Z,100.00
2022-10-10T20:29:07.936Z,100.00
2022-10-10T20:31:38.290Z,100.00
2022-10-10T20:34:07.460Z,100.00
2022-10-10T20:36:39.149Z,100.00
2022-10-10T20:39:10.512Z,100.00
2022-10-10T20:41:40.219Z,100.00
2022-10-10T20:44:11.716Z,100.00
2022-10-10T20:46:43.295Z,100.00
2022-10-10T20:49:15.782Z,100.00
2022-10-10T20:51:48.692Z,100.00
2022-10-10T20:54:19.061Z,100.00
2022-10-10T20:56:49.154Z,100.00
2022-10-10T20:59:18.001Z,100.00
2022-10-10T21:01:46.448Z,100.00
2022-10-10T21:04:15.066Z,100.00
2022-10-10T21:06:44.630Z,100.00
2022-10-10T21:09:15.873Z,100.00
2022-10-10T21:11:46.437Z,100.00
2022-10-10T21:14:17.026Z,100.00
2022-10-10T21:16:45.305Z,100.00
2022-10-10T21:19:13.817Z,100.00
2022-10-10T21:21:42.051Z,100.00
2022-10-10T21:24:13.436Z,100.00
2022-10-10T21:26:43.299Z,100.00
2022-10-10T21:29:11.445Z,100.00
2022-10-10T21:31:41.622Z,100.00
2022-10-10T21:34:15.571Z,100.00
2022-10-10T21:36:43.819Z,100.00
2022-10-10T21:39:14.096Z,100.00
2022-10-10T21:41:42.684Z,100.00
2022-10-10T21:44:11.540Z,100.00
2022-10-10T21:46:39.732Z,100.00
2022-10-10T21:49:10.072Z,100.00
2022-10-10T21:51:40.132Z,100.00
2022-10-10T21:54:09.092Z,100.00
2022-10-10T21:56:39.121Z,100.00
2022-10-10T21:59:08.055Z,100.00
2022-10-10T22:01:37.766Z,100.00
2022-10-10T22:04:07.642Z,100.00
2022-10-10T22:06:36.310Z,100.00
2022-10-10T22:09:04.993Z,99.56
2022-10-10T22:11:35.321Z,100.00
2022-10-10T22:14:05.608Z,100.00
2022-10-10T22:16:35.104Z,100.00
2022-10-10T22:19:04.681Z,99.38
2022-10-10T22:21:34.947Z,99.25
2022-10-10T22:24:07.506Z,99.57
2022-10-10T22:26:36.584Z,99.16
2022-10-10T22:29:06.548Z,99.59
2022-10-10T22:31:37.550Z,98.95
2022-10-10T22:34:06.463Z,98.50
2022-10-10T22:36:34.738Z,99.26
2022-10-10T22:39:02.972Z,98.95
2022-10-10T22:41:31.173Z,99.07
2022-10-10T22:43:59.786Z,98.00
2022-10-10T22:46:29.307Z,98.53
2022-10-10T22:48:57.641Z,98.23
2022-10-10T22:51:26.152Z,97.53
2022-10-10T22:53:54.339Z,98.15
2022-10-10T22:56:23.138Z,97.48
2022-10-10T22:58:52.679Z,97.77
2022-10-10T23:01:24.275Z,97.17
2022-10-10T23:04:00.411Z,97.28
2022-10-10T23:06:28.981Z,97.32
2022-10-10T23:08:58.136Z,97.50
2022-10-10T23:11:26.327Z,96.29
2022-10-10T23:13:54.499Z,97.71
2022-10-10T23:16:22.763Z,97.65
2022-10-10T23:18:51.142Z,97.45
2022-10-10T23:21:21.166Z,97.17
2022-10-10T23:23:49.313Z,96.83
2022-10-10T23:26:17.613Z,96.91
2022-10-10T23:28:45.872Z,96.47
2022-10-10T23:31:15.047Z,96.42
2022-10-10T23:33:44.363Z,96.14
2022-10-10T23:36:14.881Z,96.41
2022-10-10T23:38:44.737Z,95.82
2022-10-10T23:41:13.891Z,96.08
2022-10-10T23:43:42.077Z,95.64
2022-10-10T23:46:10.298Z,95.60
2022-10-10T23:48:38.521Z,95.52
2022-10-10T23:51:08.020Z,95.69
2022-10-10T23:53:36.726Z,95.51
2022-10-10T23:56:07.340Z,95.66
2022-10-10T23:58:35.988Z,94.87
